sensor_id;sensor_type;location;lat;lon;timestamp;pressure;altitude;pressure_sealevel;temperature
63220;BMP180;49320;52.512;13.448;2023-06-14T00:00:33;101388.00;;;22.10
63220;BMP180;49320;52.512;13.448;2023-06-14T00:03:02;101401.00;;;22.10
63220;BMP180;49320;52.512;13.448;2023-06-14T00:05:30;101388.00;;;22.00
63220;BMP180;49320;52.512;13.448;2023-06-14T00:07:59;101387.00;;;22.00
63220;BMP180;49320;52.512;13.448;2023-06-14T00:10:27;101394.00;;;21.90
63220;BMP180;49320;52.512;13.448;2023-06-14T00:12:57;101393.00;;;21.80
63220;BMP180;49320;52.512;13.448;2023-06-14T00:15:26;101386.00;;;21.80
63220;BMP180;49320;52.512;13.448;2023-06-14T00:17:53;101385.00;;;21.70
63220;BMP180;49320;52.512;13.448;2023-06-14T00:20:21;101395.00;;;21.70
63220;BMP180;49320;52.512;13.448;2023-06-14T00:22:48;101395.00;;;21.70
63220;BMP180;49320;52.512;13.448;2023-06-14T00:25:14;101387.00;;;21.70
63220;BMP180;49320;52.512;13.448;2023-06-14T00:27:56;101383.00;;;21.70
63220;BMP180;49320;52.512;13.448;2023-06-14T00:30:24;101381.00;;;21.70
63220;BMP180;49320;52.512;13.448;2023-06-14T00:32:51;101379.00;;;21.60
63220;BMP180;49320;52.512;13.448;2023-06-14T00:35:18;101384.00;;;21.60
63220;BMP180;49320;52.512;13.448;2023-06-14T00:37:45;101392.00;;;21.60
63220;BMP180;49320;52.512;13.448;2023-06-14T00:40:12;101394.00;;;21.60
63220;BMP180;49320;52.512;13.448;2023-06-14T00:42:40;101398.00;;;21.60
63220;BMP180;49320;52.512;13.448;2023-06-14T00:45:08;101397.00;;;21.50
63220;BMP180;49320;52.512;13.448;2023-06-14T00:47:37;101388.00;;;21.50
63220;BMP180;49320;52.512;13.448;2023-06-14T00:50:07;101394.00;;;21.50
63220;BMP180;49320;52.512;13.448;2023-06-14T00:52:35;101399.00;;;21.50
63220;BMP180;49320;52.512;13.448;2023-06-14T00:55:03;101385.00;;;21.50
63220;BMP180;49320;52.512;13.448;2023-06-14T00:57:31;101393.00;;;21.50
63220;BMP180;49320;52.512;13.448;2023-06-14T00:59:58;101387.00;;;21.40
63220;BMP180;49320;52.512;13.448;2023-06-14T01:02:25;101388.00;;;21.50
63220;BMP180;49320;52.512;13.448;2023-06-14T01:04:53;101384.00;;;21.40
63220;BMP180;49320;52.512;13.448;2023-06-14T01:08:05;101369.00;;;21.40
63220;BMP180;49320;52.512;13.448;2023-06-14T01:11:05;101380.00;;;21.40
63220;BMP180;49320;52.512;13.448;2023-06-14T01:13:37;101383.00;;;21.30
63220;BMP180;49320;52.512;13.448;2023-06-14T01:16:06;101385.00;;;21.30
63220;BMP180;49320;52.512;13.448;2023-06-14T01:18:34;101381.00;;;21.30
63220;BMP180;49320;52.512;13.448;2023-06-14T01:21:02;101388.00;;;21.30
63220;BMP180;49320;52.512;13.448;2023-06-14T01:23:32;101388.00;;;21.30
63220;BMP180;49320;52.512;13.448;2023-06-14T01:26:01;101386.00;;;21.30
63220;BMP180;49320;52.512;13.448;2023-06-14T01:28:31;101386.00;;;21.30
63220;BMP180;49320;52.512;13.448;2023-06-14T01:31:02;101387.00;;;21.30
63220;BMP180;49320;52.512;13.448;2023-06-14T01:33:33;101368.00;;;21.30
63220;BMP180;49320;52.512;13.448;2023-06-14T01:36:05;101378.00;;;21.30
63220;BMP180;49320;52.512;13.448;2023-06-14T01:38:33;101379.00;;;21.20
63220;BMP180;49320;52.512;13.448;2023-06-14T01:41:01;101379.00;;;21.20
63220;BMP180;49320;52.512;13.448;2023-06-14T01:43:31;101379.00;;;21.20
63220;BMP180;49320;52.512;13.448;2023-06-14T01:46:00;101374.00;;;21.20
63220;BMP180;49320;52.512;13.448;2023-06-14T01:48:27;101381.00;;;21.20
63220;BMP180;49320;52.512;13.448;2023-06-14T01:50:54;101384.00;;;21.20
63220;BMP180;49320;52.512;13.448;2023-06-14T01:53:21;101392.00;;;21.20
63220;BMP180;49320;52.512;13.448;2023-06-14T01:55:48;101394.00;;;21.20
63220;BMP180;49320;52.512;13.448;2023-06-14T01:58:15;101384.00;;;21.20
63220;BMP180;49320;52.512;13.448;2023-06-14T02:00:45;101382.00;;;21.20
63220;BMP180;49320;52.512;13.448;2023-06-14T02:03:14;101383.00;;;21.10
63220;BMP180;49320;52.512;13.448;2023-06-14T02:05:42;101389.00;;;21.10
63220;BMP180;49320;52.512;13.448;2023-06-14T02:08:08;101381.00;;;21.10
63220;BMP180;49320;52.512;13.448;2023-06-14T02:10:35;101392.00;;;21.10
63220;BMP180;49320;52.512;13.448;2023-06-14T02:13:03;101392.00;;;21.10
63220;BMP180;49320;52.512;13.448;2023-06-14T02:15:29;101387.00;;;21.10
63220;BMP180;49320;52.512;13.448;2023-06-14T02:18:02;101399.00;;;21.10
63220;BMP180;49320;52.512;13.448;2023-06-14T02:20:30;101391.00;;;21.10
63220;BMP180;49320;52.512;13.448;2023-06-14T02:22:57;101399.00;;;21.10
63220;BMP180;49320;52.512;13.448;2023-06-14T02:25:24;101390.00;;;21.10
63220;BMP180;49320;52.512;13.448;2023-06-14T02:27:51;101397.00;;;21.10
63220;BMP180;49320;52.512;13.448;2023-06-14T02:30:18;101383.00;;;21.00
63220;BMP180;49320;52.512;13.448;2023-06-14T02:32:45;101386.00;;;21.00
63220;BMP180;49320;52.512;13.448;2023-06-14T02:35:12;101396.00;;;21.00
63220;BMP180;49320;52.512;13.448;2023-06-14T02:37:40;101391.00;;;21.00
63220;BMP180;49320;52.512;13.448;2023-06-14T02:40:07;101390.00;;;20.90
63220;BMP180;49320;52.512;13.448;2023-06-14T02:42:35;101396.00;;;20.90
63220;BMP180;49320;52.512;13.448;2023-06-14T02:45:02;101397.00;;;20.90
63220;BMP180;49320;52.512;13.448;2023-06-14T02:47:30;101395.00;;;20.90
63220;BMP180;49320;52.512;13.448;2023-06-14T02:49:57;101393.00;;;20.90
63220;BMP180;49320;52.512;13.448;2023-06-14T02:52:24;101400.00;;;20.90
63220;BMP180;49320;52.512;13.448;2023-06-14T02:54:51;101404.00;;;20.90
63220;BMP180;49320;52.512;13.448;2023-06-14T02:57:18;101394.00;;;20.90
63220;BMP180;49320;52.512;13.448;2023-06-14T02:59:45;101399.00;;;20.90
63220;BMP180;49320;52.512;13.448;2023-06-14T03:02:12;101389.00;;;20.90
63220;BMP180;49320;52.512;13.448;2023-06-14T03:04:39;101393.00;;;20.90
63220;BMP180;49320;52.512;13.448;2023-06-14T03:07:06;101388.00;;;20.90
63220;BMP180;49320;52.512;13.448;2023-06-14T03:09:36;101393.00;;;20.90
63220;BMP180;49320;52.512;13.448;2023-06-14T03:12:05;101388.00;;;20.90
63220;BMP180;49320;52.512;13.448;2023-06-14T03:14:36;101381.00;;;20.90
63220;BMP180;49320;52.512;13.448;2023-06-14T03:17:03;101395.00;;;21.00
63220;BMP180;49320;52.512;13.448;2023-06-14T03:19:31;101389.00;;;21.00
63220;BMP180;49320;52.512;13.448;2023-06-14T03:21:58;101394.00;;;21.00
63220;BMP180;49320;52.512;13.448;2023-06-14T03:24:26;101388.00;;;21.10
63220;BMP180;49320;52.512;13.448;2023-06-14T03:26:55;101398.00;;;21.10
63220;BMP180;49320;52.512;13.448;2023-06-14T03:29:23;101397.00;;;21.10
63220;BMP180;49320;52.512;13.448;2023-06-14T03:31:59;101396.00;;;21.20
63220;BMP180;49320;52.512;13.448;2023-06-14T03:34:26;101392.00;;;21.20
63220;BMP180;49320;52.512;13.448;2023-06-14T03:36:53;101394.00;;;21.20
63220;BMP180;49320;52.512;13.448;2023-06-14T03:39:20;101403.00;;;21.20
63220;BMP180;49320;52.512;13.448;2023-06-14T03:41:47;101402.00;;;21.20
63220;BMP180;49320;52.512;13.448;2023-06-14T03:44:17;101396.00;;;21.20
63220;BMP180;49320;52.512;13.448;2023-06-14T03:46:45;101401.00;;;21.30
63220;BMP180;49320;52.512;13.448;2023-06-14T03:49:13;101404.00;;;21.30
63220;BMP180;49320;52.512;13.448;2023-06-14T03:51:40;101405.00;;;21.30
63220;BMP180;49320;52.512;13.448;2023-06-14T03:54:07;101413.00;;;21.30
63220;BMP180;49320;52.512;13.448;2023-06-14T03:56:37;101408.00;;;21.30
63220;BMP180;49320;52.512;13.448;2023-06-14T03:59:04;101414.00;;;21.40
63220;BMP180;49320;52.512;13.448;2023-06-14T04:01:31;101413.00;;;21.40
63220;BMP180;49320;52.512;13.448;2023-06-14T04:04:00;101425.00;;;21.50
63220;BMP180;49320;52.512;13.448;2023-06-14T04:06:28;101430.00;;;21.60
63220;BMP180;49320;52.512;13.448;2023-06-14T04:09:00;101433.00;;;21.70
63220;BMP180;49320;52.512;13.448;2023-06-14T04:11:30;101427.00;;;21.70
63220;BMP180;49320;52.512;13.448;2023-06-14T04:13:58;101424.00;;;21.80
63220;BMP180;49320;52.512;13.448;2023-06-14T04:16:26;101437.00;;;21.80
63220;BMP180;49320;52.512;13.448;2023-06-14T04:18:55;101429.00;;;21.90
63220;BMP180;49320;52.512;13.448;2023-06-14T04:21:22;101424.00;;;21.90
63220;BMP180;49320;52.512;13.448;2023-06-14T04:23:50;101428.00;;;21.90
63220;BMP180;49320;52.512;13.448;2023-06-14T04:26:19;101427.00;;;22.00
63220;BMP180;49320;52.512;13.448;2023-06-14T04:28:49;101426.00;;;22.00
63220;BMP180;49320;52.512;13.448;2023-06-14T04:31:17;101429.00;;;22.00
63220;BMP180;49320;52.512;13.448;2023-06-14T04:33:45;101437.00;;;22.00
63220;BMP180;49320;52.512;13.448;2023-06-14T04:36:13;101431.00;;;22.00
63220;BMP180;49320;52.512;13.448;2023-06-14T04:38:44;101434.00;;;22.10
63220;BMP180;49320;52.512;13.448;2023-06-14T04:41:16;101422.00;;;22.10
63220;BMP180;49320;52.512;13.448;2023-06-14T04:43:44;101426.00;;;22.20
63220;BMP180;49320;52.512;13.448;2023-06-14T04:46:15;101428.00;;;22.30
63220;BMP180;49320;52.512;13.448;2023-06-14T04:48:43;101423.00;;;22.30
63220;BMP180;49320;52.512;13.448;2023-06-14T04:51:11;101427.00;;;22.40
63220;BMP180;49320;52.512;13.448;2023-06-14T04:53:39;101433.00;;;22.40
63220;BMP180;49320;52.512;13.448;2023-06-14T04:56:06;101436.00;;;22.40
63220;BMP180;49320;52.512;13.448;2023-06-14T04:58:34;101433.00;;;22.50
63220;BMP180;49320;52.512;13.448;2023-06-14T05:01:00;101434.00;;;22.60
63220;BMP180;49320;52.512;13.448;2023-06-14T05:03:28;101434.00;;;22.70
63220;BMP180;49320;52.512;13.448;2023-06-14T05:05:57;101439.00;;;22.80
63220;BMP180;49320;52.512;13.448;2023-06-14T05:08:24;101430.00;;;22.90
63220;BMP180;49320;52.512;13.448;2023-06-14T05:10:51;101424.00;;;23.00
63220;BMP180;49320;52.512;13.448;2023-06-14T05:13:18;101433.00;;;23.10
63220;BMP180;49320;52.512;13.448;2023-06-14T05:15:45;101426.00;;;23.10
63220;BMP180;49320;52.512;13.448;2023-06-14T05:18:12;101434.00;;;23.20
63220;BMP180;49320;52.512;13.448;2023-06-14T05:20:40;101435.00;;;23.30
63220;BMP180;49320;52.512;13.448;2023-06-14T05:23:09;101442.00;;;23.40
63220;BMP180;49320;52.512;13.448;2023-06-14T05:25:45;101454.00;;;23.40
63220;BMP180;49320;52.512;13.448;2023-06-14T05:28:12;101455.00;;;23.50
63220;BMP180;49320;52.512;13.448;2023-06-14T05:30:39;101449.00;;;23.60
63220;BMP180;49320;52.512;13.448;2023-06-14T05:33:06;101448.00;;;23.70
63220;BMP180;49320;52.512;13.448;2023-06-14T05:35:33;101460.00;;;23.70
63220;BMP180;49320;52.512;13.448;2023-06-14T05:38:00;101461.00;;;23.70
63220;BMP180;49320;52.512;13.448;2023-06-14T05:40:27;101465.00;;;23.70
63220;BMP180;49320;52.512;13.448;2023-06-14T05:42:54;101466.00;;;23.70
63220;BMP180;49320;52.512;13.448;2023-06-14T05:45:21;101454.00;;;23.80
63220;BMP180;49320;52.512;13.448;2023-06-14T05:47:48;101470.00;;;23.80
63220;BMP180;49320;52.512;13.448;2023-06-14T05:50:15;101469.00;;;23.80
63220;BMP180;49320;52.512;13.448;2023-06-14T05:52:42;101470.00;;;23.80
63220;BMP180;49320;52.512;13.448;2023-06-14T05:55:09;101468.00;;;23.80
63220;BMP180;49320;52.512;13.448;2023-06-14T05:57:39;101471.00;;;23.80
63220;BMP180;49320;52.512;13.448;2023-06-14T06:00:08;101478.00;;;23.80
63220;BMP180;49320;52.512;13.448;2023-06-14T06:02:44;101482.00;;;23.80
63220;BMP180;49320;52.512;13.448;2023-06-14T06:05:12;101484.00;;;23.70
63220;BMP180;49320;52.512;13.448;2023-06-14T06:07:40;101475.00;;;23.70
63220;BMP180;49320;52.512;13.448;2023-06-14T06:10:07;101486.00;;;23.70
63220;BMP180;49320;52.512;13.448;2023-06-14T06:12:34;101477.00;;;23.60
63220;BMP180;49320;52.512;13.448;2023-06-14T06:15:02;101480.00;;;23.60
63220;BMP180;49320;52.512;13.448;2023-06-14T06:17:29;101478.00;;;23.60
63220;BMP180;49320;52.512;13.448;2023-06-14T06:20:16;101473.00;;;23.50
63220;BMP180;49320;52.512;13.448;2023-06-14T06:22:44;101479.00;;;23.50
63220;BMP180;49320;52.512;13.448;2023-06-14T06:25:10;101465.00;;;23.50
63220;BMP180;49320;52.512;13.448;2023-06-14T06:27:37;101473.00;;;23.50
63220;BMP180;49320;52.512;13.448;2023-06-14T06:30:05;101461.00;;;23.50
63220;BMP180;49320;52.512;13.448;2023-06-14T06:32:32;101467.00;;;23.60
63220;BMP180;49320;52.512;13.448;2023-06-14T06:34:59;101475.00;;;23.60
63220;BMP180;49320;52.512;13.448;2023-06-14T06:37:26;101465.00;;;23.60
63220;BMP180;49320;52.512;13.448;2023-06-14T06:39:53;101471.00;;;23.60
63220;BMP180;49320;52.512;13.448;2023-06-14T06:42:20;101473.00;;;23.50
63220;BMP180;49320;52.512;13.448;2023-06-14T06:44:47;101474.00;;;23.50
63220;BMP180;49320;52.512;13.448;2023-06-14T06:47:14;101477.00;;;23.50
63220;BMP180;49320;52.512;13.448;2023-06-14T06:49:41;101481.00;;;23.50
63220;BMP180;49320;52.512;13.448;2023-06-14T06:52:08;101473.00;;;23.60
63220;BMP180;49320;52.512;13.448;2023-06-14T06:54:35;101473.00;;;23.70
63220;BMP180;49320;52.512;13.448;2023-06-14T06:57:02;101478.00;;;23.80
63220;BMP180;49320;52.512;13.448;2023-06-14T06:59:29;101482.00;;;23.80
63220;BMP180;49320;52.512;13.448;2023-06-14T07:01:56;101487.00;;;23.90
63220;BMP180;49320;52.512;13.448;2023-06-14T07:04:23;101497.00;;;23.90
63220;BMP180;49320;52.512;13.448;2023-06-14T07:06:51;101486.00;;;24.00
63220;BMP180;49320;52.512;13.448;2023-06-14T07:09:17;101495.00;;;24.10
63220;BMP180;49320;52.512;13.448;2023-06-14T07:11:47;101496.00;;;24.20
63220;BMP180;49320;52.512;13.448;2023-06-14T07:14:14;101494.00;;;24.20
63220;BMP180;49320;52.512;13.448;2023-06-14T07:16:41;101503.00;;;24.30
63220;BMP180;49320;52.512;13.448;2023-06-14T07:19:10;101501.00;;;24.30
63220;BMP180;49320;52.512;13.448;2023-06-14T07:21:37;101498.00;;;24.40
63220;BMP180;49320;52.512;13.448;2023-06-14T07:24:06;101501.00;;;24.40
63220;BMP180;49320;52.512;13.448;2023-06-14T07:26:34;101500.00;;;24.50
63220;BMP180;49320;52.512;13.448;2023-06-14T07:29:04;101505.00;;;24.50
63220;BMP180;49320;52.512;13.448;2023-06-14T07:31:31;101512.00;;;24.60
63220;BMP180;49320;52.512;13.448;2023-06-14T07:33:58;101522.00;;;24.70
63220;BMP180;49320;52.512;13.448;2023-06-14T07:36:25;101518.00;;;24.80
63220;BMP180;49320;52.512;13.448;2023-06-14T07:38:52;101518.00;;;25.00
63220;BMP180;49320;52.512;13.448;2023-06-14T07:41:19;101531.00;;;25.10
63220;BMP180;49320;52.512;13.448;2023-06-14T07:43:46;101514.00;;;25.20
63220;BMP180;49320;52.512;13.448;2023-06-14T07:46:13;101518.00;;;25.40
63220;BMP180;49320;52.512;13.448;2023-06-14T07:48:40;101512.00;;;25.50
63220;BMP180;49320;52.512;13.448;2023-06-14T07:51:07;101510.00;;;25.70
63220;BMP180;49320;52.512;13.448;2023-06-14T07:53:34;101509.00;;;25.80
63220;BMP180;49320;52.512;13.448;2023-06-14T07:56:00;101512.00;;;26.00
63220;BMP180;49320;52.512;13.448;2023-06-14T07:58:29;101509.00;;;26.10
63220;BMP180;49320;52.512;13.448;2023-06-14T08:00:56;101504.00;;;26.20
63220;BMP180;49320;52.512;13.448;2023-06-14T08:03:22;101504.00;;;26.30
63220;BMP180;49320;52.512;13.448;2023-06-14T08:05:50;101505.00;;;26.40
63220;BMP180;49320;52.512;13.448;2023-06-14T08:08:17;101497.00;;;26.40
63220;BMP180;49320;52.512;13.448;2023-06-14T08:10:44;101495.00;;;26.40
63220;BMP180;49320;52.512;13.448;2023-06-14T08:13:11;101498.00;;;26.40
63220;BMP180;49320;52.512;13.448;2023-06-14T08:15:38;101499.00;;;26.50
63220;BMP180;49320;52.512;13.448;2023-06-14T08:18:05;101499.00;;;26.50
63220;BMP180;49320;52.512;13.448;2023-06-14T08:20:32;101502.00;;;26.60
63220;BMP180;49320;52.512;13.448;2023-06-14T08:22:59;101501.00;;;26.70
63220;BMP180;49320;52.512;13.448;2023-06-14T08:25:26;101506.00;;;26.80
63220;BMP180;49320;52.512;13.448;2023-06-14T08:27:53;101495.00;;;26.90
63220;BMP180;49320;52.512;13.448;2023-06-14T08:30:20;101503.00;;;27.00
63220;BMP180;49320;52.512;13.448;2023-06-14T08:32:46;101501.00;;;27.00
63220;BMP180;49320;52.512;13.448;2023-06-14T08:35:22;101494.00;;;27.10
63220;BMP180;49320;52.512;13.448;2023-06-14T08:37:50;101494.00;;;27.10
63220;BMP180;49320;52.512;13.448;2023-06-14T08:40:22;101500.00;;;27.10
63220;BMP180;49320;52.512;13.448;2023-06-14T08:42:54;101492.00;;;27.10
63220;BMP180;49320;52.512;13.448;2023-06-14T08:45:23;101495.00;;;27.10
63220;BMP180;49320;52.512;13.448;2023-06-14T08:47:53;101482.00;;;27.20
63220;BMP180;49320;52.512;13.448;2023-06-14T08:50:26;101486.00;;;27.20
63220;BMP180;49320;52.512;13.448;2023-06-14T08:52:59;101496.00;;;27.30
63220;BMP180;49320;52.512;13.448;2023-06-14T08:55:32;101495.00;;;27.40
63220;BMP180;49320;52.512;13.448;2023-06-14T08:58:04;101491.00;;;27.40
63220;BMP180;49320;52.512;13.448;2023-06-14T09:00:32;101499.00;;;27.50
63220;BMP180;49320;52.512;13.448;2023-06-14T09:03:00;101502.00;;;27.60
63220;BMP180;49320;52.512;13.448;2023-06-14T09:05:28;101500.00;;;27.80
63220;BMP180;49320;52.512;13.448;2023-06-14T09:07:55;101501.00;;;28.00
63220;BMP180;49320;52.512;13.448;2023-06-14T09:10:32;101501.00;;;28.20
63220;BMP180;49320;52.512;13.448;2023-06-14T09:13:01;101493.00;;;28.40
63220;BMP180;49320;52.512;13.448;2023-06-14T09:15:30;101499.00;;;28.60
63220;BMP180;49320;52.512;13.448;2023-06-14T09:17:57;101497.00;;;28.70
63220;BMP180;49320;52.512;13.448;2023-06-14T09:20:24;101508.00;;;28.90
63220;BMP180;49320;52.512;13.448;2023-06-14T09:22:53;101500.00;;;28.90
63220;BMP180;49320;52.512;13.448;2023-06-14T09:25:20;101514.00;;;28.90
63220;BMP180;49320;52.512;13.448;2023-06-14T09:28:07;101503.00;;;28.90
63220;BMP180;49320;52.512;13.448;2023-06-14T09:30:37;101519.00;;;28.90
63220;BMP180;49320;52.512;13.448;2023-06-14T09:33:04;101518.00;;;28.80
63220;BMP180;49320;52.512;13.448;2023-06-14T09:35:32;101505.00;;;28.80
63220;BMP180;49320;52.512;13.448;2023-06-14T09:37:59;101507.00;;;28.70
63220;BMP180;49320;52.512;13.448;2023-06-14T09:40:26;101515.00;;;28.70
63220;BMP180;49320;52.512;13.448;2023-06-14T09:42:54;101514.00;;;28.70
63220;BMP180;49320;52.512;13.448;2023-06-14T09:45:25;101505.00;;;28.70
63220;BMP180;49320;52.512;13.448;2023-06-14T09:47:57;101507.00;;;28.80
63220;BMP180;49320;52.512;13.448;2023-06-14T09:50:34;101511.00;;;28.80
63220;BMP180;49320;52.512;13.448;2023-06-14T09:53:10;101512.00;;;28.90
63220;BMP180;49320;52.512;13.448;2023-06-14T09:55:40;101512.00;;;28.90
63220;BMP180;49320;52.512;13.448;2023-06-14T09:58:10;101515.00;;;29.00
63220;BMP180;49320;52.512;13.448;2023-06-14T10:00:40;101517.00;;;29.00
63220;BMP180;49320;52.512;13.448;2023-06-14T10:03:14;101508.00;;;29.00
63220;BMP180;49320;52.512;13.448;2023-06-14T10:05:47;101512.00;;;29.00
63220;BMP180;49320;52.512;13.448;2023-06-14T10:08:18;101510.00;;;29.00
63220;BMP180;49320;52.512;13.448;2023-06-14T10:10:46;101505.00;;;29.10
63220;BMP180;49320;52.512;13.448;2023-06-14T10:13:13;101508.00;;;29.10
63220;BMP180;49320;52.512;13.448;2023-06-14T10:18:48;101495.00;;;29.10
63220;BMP180;49320;52.512;13.448;2023-06-14T10:21:49;101510.00;;;29.00
63220;BMP180;49320;52.512;13.448;2023-06-14T10:24:26;101515.00;;;28.90
63220;BMP180;49320;52.512;13.448;2023-06-14T10:26:58;101500.00;;;28.90
63220;BMP180;49320;52.512;13.448;2023-06-14T10:29:27;101502.00;;;29.00
63220;BMP180;49320;52.512;13.448;2023-06-14T10:32:00;101510.00;;;29.00
63220;BMP180;49320;52.512;13.448;2023-06-14T10:34:30;101517.00;;;29.00
63220;BMP180;49320;52.512;13.448;2023-06-14T10:37:06;101497.00;;;28.90
63220;BMP180;49320;52.512;13.448;2023-06-14T10:39:45;101498.00;;;28.90
63220;BMP180;49320;52.512;13.448;2023-06-14T10:42:15;101487.00;;;28.80
63220;BMP180;49320;52.512;13.448;2023-06-14T10:44:50;101491.00;;;28.80
63220;BMP180;49320;52.512;13.448;2023-06-14T10:47:34;101492.00;;;28.90
63220;BMP180;49320;52.512;13.448;2023-06-14T10:50:05;101492.00;;;28.90
63220;BMP180;49320;52.512;13.448;2023-06-14T10:52:40;101484.00;;;28.90
63220;BMP180;49320;52.512;13.448;2023-06-14T10:55:13;101492.00;;;28.90
63220;BMP180;49320;52.512;13.448;2023-06-14T10:57:53;101485.00;;;29.10
63220;BMP180;49320;52.512;13.448;2023-06-14T11:00:27;101490.00;;;29.30
63220;BMP180;49320;52.512;13.448;2023-06-14T11:03:12;101484.00;;;29.50
63220;BMP180;49320;52.512;13.448;2023-06-14T11:05:54;101480.00;;;29.50
63220;BMP180;49320;52.512;13.448;2023-06-14T11:11:33;101476.00;;;29.70
63220;BMP180;49320;52.512;13.448;2023-06-14T11:14:02;101482.00;;;29.80
63220;BMP180;49320;52.512;13.448;2023-06-14T11:16:29;101472.00;;;29.90
63220;BMP180;49320;52.512;13.448;2023-06-14T11:19:01;101473.00;;;30.00
63220;BMP180;49320;52.512;13.448;2023-06-14T11:21:34;101475.00;;;30.10
63220;BMP180;49320;52.512;13.448;2023-06-14T11:24:00;101469.00;;;30.20
63220;BMP180;49320;52.512;13.448;2023-06-14T11:26:31;101459.00;;;30.30
63220;BMP180;49320;52.512;13.448;2023-06-14T11:29:01;101459.00;;;30.40
63220;BMP180;49320;52.512;13.448;2023-06-14T11:31:29;101452.00;;;30.50
63220;BMP180;49320;52.512;13.448;2023-06-14T11:33:58;101446.00;;;30.50
63220;BMP180;49320;52.512;13.448;2023-06-14T11:36:28;101452.00;;;30.60
63220;BMP180;49320;52.512;13.448;2023-06-14T11:39:01;101448.00;;;30.60
63220;BMP180;49320;52.512;13.448;2023-06-14T11:41:42;101448.00;;;30.70
63220;BMP180;49320;52.512;13.448;2023-06-14T11:44:09;101451.00;;;30.70
63220;BMP180;49320;52.512;13.448;2023-06-14T11:46:36;101449.00;;;30.80
63220;BMP180;49320;52.512;13.448;2023-06-14T11:49:04;101438.00;;;30.80
63220;BMP180;49320;52.512;13.448;2023-06-14T11:51:34;101444.00;;;30.80
63220;BMP180;49320;52.512;13.448;2023-06-14T11:54:06;101441.00;;;30.80
63220;BMP180;49320;52.512;13.448;2023-06-14T11:56:34;101426.00;;;30.80
63220;BMP180;49320;52.512;13.448;2023-06-14T11:59:03;101434.00;;;30.80
63220;BMP180;49320;52.512;13.448;2023-06-14T12:01:35;101419.00;;;30.70
63220;BMP180;49320;52.512;13.448;2023-06-14T12:04:03;101414.00;;;30.60
63220;BMP180;49320;52.512;13.448;2023-06-14T12:06:31;101418.00;;;30.50
63220;BMP180;49320;52.512;13.448;2023-06-14T12:09:08;101419.00;;;30.30
63220;BMP180;49320;52.512;13.448;2023-06-14T12:11:40;101405.00;;;30.20
63220;BMP180;49320;52.512;13.448;2023-06-14T12:14:09;101405.00;;;30.20
63220;BMP180;49320;52.512;13.448;2023-06-14T12:16:39;101398.00;;;30.20
63220;BMP180;49320;52.512;13.448;2023-06-14T12:19:14;101410.00;;;30.20
63220;BMP180;49320;52.512;13.448;2023-06-14T12:21:42;101395.00;;;30.20
63220;BMP180;49320;52.512;13.448;2023-06-14T12:24:11;101390.00;;;30.20
63220;BMP180;49320;52.512;13.448;2023-06-14T12:26:40;101392.00;;;30.20
63220;BMP180;49320;52.512;13.448;2023-06-14T12:29:08;101377.00;;;30.10
63220;BMP180;49320;52.512;13.448;2023-06-14T12:31:35;101380.00;;;30.10
63220;BMP180;49320;52.512;13.448;2023-06-14T12:34:01;101381.00;;;30.10
63220;BMP180;49320;52.512;13.448;2023-06-14T12:36:28;101374.00;;;30.10
63220;BMP180;49320;52.512;13.448;2023-06-14T12:38:55;101384.00;;;30.10
63220;BMP180;49320;52.512;13.448;2023-06-14T12:41:22;101381.00;;;30.10
63220;BMP180;49320;52.512;13.448;2023-06-14T12:43:49;101391.00;;;30.10
63220;BMP180;49320;52.512;13.448;2023-06-14T12:46:17;101383.00;;;30.10
63220;BMP180;49320;52.512;13.448;2023-06-14T12:48:43;101380.00;;;30.20
63220;BMP180;49320;52.512;13.448;2023-06-14T12:51:11;101373.00;;;30.30
63220;BMP180;49320;52.512;13.448;2023-06-14T12:53:37;101374.00;;;30.40
63220;BMP180;49320;52.512;13.448;2023-06-14T12:56:04;101372.00;;;30.50
63220;BMP180;49320;52.512;13.448;2023-06-14T12:58:31;101370.00;;;30.60
63220;BMP180;49320;52.512;13.448;2023-06-14T13:00:58;101370.00;;;30.70
63220;BMP180;49320;52.512;13.448;2023-06-14T13:03:25;101358.00;;;30.80
63220;BMP180;49320;52.512;13.448;2023-06-14T13:05:52;101363.00;;;30.90
63220;BMP180;49320;52.512;13.448;2023-06-14T13:08:19;101371.00;;;30.90
63220;BMP180;49320;52.512;13.448;2023-06-14T13:10:49;101363.00;;;31.00
63220;BMP180;49320;52.512;13.448;2023-06-14T13:13:17;101358.00;;;31.10
63220;BMP180;49320;52.512;13.448;2023-06-14T13:15:44;101355.00;;;31.20
63220;BMP180;49320;52.512;13.448;2023-06-14T13:18:12;101342.00;;;31.20
63220;BMP180;49320;52.512;13.448;2023-06-14T13:20:40;101338.00;;;31.20
63220;BMP180;49320;52.512;13.448;2023-06-14T13:23:08;101346.00;;;31.30
63220;BMP180;49320;52.512;13.448;2023-06-14T13:25:37;101351.00;;;31.30
63220;BMP180;49320;52.512;13.448;2023-06-14T13:28:05;101334.00;;;31.40
63220;BMP180;49320;52.512;13.448;2023-06-14T13:30:32;101338.00;;;31.40
63220;BMP180;49320;52.512;13.448;2023-06-14T13:33:00;101336.00;;;31.50
63220;BMP180;49320;52.512;13.448;2023-06-14T13:35:27;101327.00;;;31.60
63220;BMP180;49320;52.512;13.448;2023-06-14T13:37:54;101333.00;;;31.70
63220;BMP180;49320;52.512;13.448;2023-06-14T13:40:21;101329.00;;;31.70
63220;BMP180;49320;52.512;13.448;2023-06-14T13:42:48;101334.00;;;31.80
63220;BMP180;49320;52.512;13.448;2023-06-14T13:45:16;101327.00;;;31.80
63220;BMP180;49320;52.512;13.448;2023-06-14T13:47:43;101333.00;;;31.90
63220;BMP180;49320;52.512;13.448;2023-06-14T13:50:10;101336.00;;;32.00
63220;BMP180;49320;52.512;13.448;2023-06-14T13:52:37;101335.00;;;32.10
63220;BMP180;49320;52.512;13.448;2023-06-14T13:55:04;101331.00;;;32.10
63220;BMP180;49320;52.512;13.448;2023-06-14T13:57:32;101329.00;;;32.10
63220;BMP180;49320;52.512;13.448;2023-06-14T13:59:59;101315.00;;;32.20